Time;durP1;ratioP1;P1;durP2;ratioP2;P2;SDS_P1;SDS_P2;PMS_P1;PMS_P2;Temp;Humidity;BMP_temperature;BMP_pressure;BME280_temperature;BME280_humidity;BME280_pressure;Samples;Min_cycle;Max_cycle;Signal;HPM_P1;HPM_P2
2021/09/07 00:14:41;;;;;;;15.27;6.73;;;;;;;14.02;67.57;101287.20;21740484;79;99421;-88
2021/09/07 00:44:42;;;;;;;16.70;7.17;;;;;;;13.94;67.65;101263.98;21868418;78;99671;-86
2021/09/07 01:14:43;;;;;;;14.53;5.87;;;;;;;13.84;68.09;101236.41;21847932;79;99728;-88
2021/09/07 01:44:44;;;;;;;;;;;;;;;13.79;68.37;101222.14;21789396;77;99542;-88
2021/09/07 02:14:45;;;;;;;11.60;6.47;;;;;;;13.66;69.69;101200.05;21794851;78;85334;-89
2021/09/07 02:44:46;;;;;;;9.53;5.08;;;;;;;13.52;69.65;101198.52;21838393;78;101345;-86
2021/09/07 03:14:48;;;;;;;13.17;6.17;;;;;;;13.39;70.14;101196.59;21870816;78;99524;-86
2021/09/07 03:44:48;;;;;;;12.60;5.27;;;;;;;13.11;70.96;101178.28;21860504;78;99879;-86
2021/09/07 04:14:50;;;;;;;11.68;5.15;;;;;;;12.88;71.83;101178.94;21833281;78;100531;-88
2021/09/07 04:44:50;;;;;;;26.40;16.17;;;;;;;12.52;73.83;101196.72;21858708;79;99974;-88
2021/09/07 05:14:51;;;;;;;20.32;7.97;;;;;;;12.41;74.70;101204.85;21906761;78;99554;-83
2021/09/07 05:44:52;;;;;;;13.22;6.28;;;;;;;12.66;75.28;101229.52;21922860;78;99530;-83
2021/09/07 06:14:53;;;;;;;24.85;9.00;;;;;;;13.05;75.05;101235.05;21859089;79;99575;-84
2021/09/07 06:44:54;;;;;;;18.07;8.98;;;;;;;13.80;74.88;101232.80;21866298;79;99386;-84
2021/09/07 07:14:55;;;;;;;17.57;7.85;;;;;;;14.81;73.35;101257.89;21837539;78;99881;-84
2021/09/07 07:44:56;;;;;;;14.53;6.75;;;;;;;15.85;71.85;101276.28;21851662;78;100136;-84
2021/09/07 08:14:57;;;;;;;28.83;7.95;;;;;;;17.58;69.51;101281.45;21839857;78;99758;-84
2021/09/07 08:44:59;;;;;;;16.27;6.23;;;;;;;19.04;65.74;101285.85;21788500;78;99395;-86
2021/09/07 09:15:00;;;;;;;16.07;5.42;;;;;;;21.09;60.20;101314.83;21763918;79;99862;-84
2021/09/07 09:45:06;;;;;;;12.63;6.42;;;;;;;23.55;55.14;101331.89;21793459;78;100725;-84
2021/09/07 10:15:28;;;;;;;12.88;5.55;;;;;;;26.81;48.69;101308.72;21776315;77;99922;-83
2021/09/07 10:45:27;;;;;;;10.05;5.70;;;;;;;28.42;42.75;101302.23;21840859;78;99315;-85
2021/09/07 11:15:38;;;;;;;16.75;6.40;;;;;;;29.48;39.25;101292.72;21865176;78;99755;-84
2021/09/07 11:45:40;;;;;;;15.05;6.83;;;;;;;29.58;38.53;101292.06;21837138;78;99450;-85
2021/09/07 12:15:42;;;;;;;8.55;5.00;;;;;;;28.87;36.57;101290.65;21837361;78;99757;-84
2021/09/07 12:45:49;;;;;;;12.10;5.35;;;;;;;28.01;39.03;101281.73;21860199;79;111785;-83
2021/09/07 13:15:50;;;;;;;13.13;6.10;;;;;;;27.20;37.80;101278.97;21896201;78;100246;-84
2021/09/07 13:45:51;;;;;;;19.48;6.30;;;;;;;26.30;39.96;101263.19;21919352;78;99755;-83
2021/09/07 14:15:52;;;;;;;10.60;5.50;;;;;;;25.94;39.66;101260.19;21912418;79;99773;-83
2021/09/07 14:45:53;;;;;;;13.73;6.33;;;;;;;25.56;40.74;101237.05;21891410;79;100049;-85
2021/09/07 15:15:55;;;;;;;10.93;5.53;;;;;;;24.43;42.08;101236.62;21913541;78;99658;-86
2021/09/07 15:45:55;;;;;;;10.93;6.20;;;;;;;23.46;43.49;101222.95;21916660;78;99558;-86
2021/09/07 16:15:56;;;;;;;11.33;5.65;;;;;;;22.71;45.89;101240.84;21910189;78;99925;-86
2021/09/07 16:45:57;;;;;;;13.55;6.35;;;;;;;21.93;47.67;101236.11;21859941;78;99677;-87
2021/09/07 17:15:58;;;;;;;11.95;6.30;;;;;;;21.08;50.30;101223.05;21773927;78;99400;-86
2021/09/07 17:46:00;;;;;;;15.98;7.62;;;;;;;20.07;53.82;101224.78;21875290;78;99359;-86
2021/09/07 18:16:02;;;;;;;14.77;7.47;;;;;;;19.10;57.17;101226.19;21887856;78;99478;-84
2021/09/07 18:46:04;;;;;;;14.13;7.75;;;;;;;18.01;60.15;101235.48;21837176;77;99775;-92
2021/09/07 19:16:05;;;;;;;12.37;7.05;;;;;;;17.06;62.82;101265.66;22014104;77;99495;-85
2021/09/07 19:46:06;;;;;;;15.03;7.72;;;;;;;16.28;64.32;101282.14;21981221;77;99585;-84
2021/09/07 20:16:07;;;;;;;17.87;9.48;;;;;;;15.70;65.37;101278.80;21909169;79;99351;-84
2021/09/07 20:46:08;;;;;;;18.15;9.15;;;;;;;15.16;67.08;101279.50;21892698;79;99418;-84
2021/09/07 21:16:10;;;;;;;18.02;8.88;;;;;;;14.69;68.31;101284.52;21745303;79;99545;-80
2021/09/07 21:46:10;;;;;;;19.40;11.78;;;;;;;13.83;71.19;101290.73;21718450;79;99451;-81
2021/09/07 22:16:11;;;;;;;26.00;14.70;;;;;;;13.83;71.19;101290.73;21896989;78;100195;-81
2021/09/07 22:46:12;;;;;;;;;;;;;;;13.38;73.13;101297.31;21942092;78;99829;-81
2021/09/07 23:16:13;;;;;;;23.10;13.20;;;;;;;12.98;76.12;101303.23;21786355;78;85526;-81
2021/09/07 23:46:14;;;;;;;23.17;13.73;;;;;;;12.62;75.60;101289.98;21726466;79;99751;-81
